Ontario Intl Information

FAA: ONT - ICAO: KONT

Ontario Intl (Airport) Location

State California
County San Bernardino
City Ontario
Ontario Intl (Airport) is 2 miles east of Ontario, CA.
Latitude 34-03-21.6000N
Longitude 117-36-04.3000W
Elevation 944ft

Ontario Intl METARs

METAR KONT 190053Z 25008KT 10SM FEW026 BKN055 14/10 A3005 RMK AO2 SLP172 T01440100
Altimeter 30.05"
Temperature 14.4°C (57.9°F)
Wind 250° at 8KT
Clouds few at 2,600ft broken at 5,500ft
Visibility 10.0mi
Time observed: 2022-01-19T00:53:00Z

Ontario Intl (Airport) Details

Status Operational
Activation April 1940
Ownership Public
Usage Public
Chart LOS ANGELES
ATC on-site Yes
Beacon schedule sunset-sunrise
Beacon color clear green

Ontario Intl (Airport) Contacts

Owner ONTARIO INTL AIRPORT AUTHORITY
Owner address 1923 EAST AVION STREET, ONTARIO, CA 91761
Owner phone (909) 544-5300
Manager TRACEY RAYBON
Manager address P.O. BOX 342, OCOTILLO, CA 92259
Manager phone 760-996-3824

Ontario Intl Radio Frequencies

Ontario Intl (Airport) Radio Frequencies

UNICOM N/A
Common traffic advisory frequency (CTAF) N/A